sensor_id;sensor_type;location;lat;lon;timestamp;temperature;humidity
46758;DHT22;32509;47.750;-3.396;2023-03-01T00:01:53;7.90;99.90
46758;DHT22;32509;47.750;-3.396;2023-03-01T00:04:19;7.80;99.90
46758;DHT22;32509;47.750;-3.396;2023-03-01T00:06:45;7.80;99.90
46758;DHT22;32509;47.750;-3.396;2023-03-01T00:09:14;7.60;99.90
46758;DHT22;32509;47.750;-3.396;2023-03-01T00:11:41;7.50;99.90
46758;DHT22;32509;47.750;-3.396;2023-03-01T00:14:07;7.40;99.90
46758;DHT22;32509;47.750;-3.396;2023-03-01T00:16:36;7.40;99.90
46758;DHT22;32509;47.750;-3.396;2023-03-01T00:19:04;7.40;99.90
46758;DHT22;32509;47.750;-3.396;2023-03-01T00:21:30;7.30;99.90
46758;DHT22;32509;47.750;-3.396;2023-03-01T00:23:56;7.30;99.90
46758;DHT22;32509;47.750;-3.396;2023-03-01T00:26:24;7.20;99.90
46758;DHT22;32509;47.750;-3.396;2023-03-01T00:28:50;7.10;99.90
46758;DHT22;32509;47.750;-3.396;2023-03-01T00:31:19;7.20;99.90
46758;DHT22;32509;47.750;-3.396;2023-03-01T00:33:45;7.20;99.90
46758;DHT22;32509;47.750;-3.396;2023-03-01T00:36:13;7.20;99.90
46758;DHT22;32509;47.750;-3.396;2023-03-01T00:38:44;7.10;99.90
46758;DHT22;32509;47.750;-3.396;2023-03-01T00:41:15;7.10;99.90
46758;DHT22;32509;47.750;-3.396;2023-03-01T00:43:44;7.00;99.90
46758;DHT22;32509;47.750;-3.396;2023-03-01T00:46:13;6.90;99.90
46758;DHT22;32509;47.750;-3.396;2023-03-01T00:48:39;6.90;99.90
46758;DHT22;32509;47.750;-3.396;2023-03-01T00:51:10;6.90;99.90
46758;DHT22;32509;47.750;-3.396;2023-03-01T00:53:37;6.80;99.90
46758;DHT22;32509;47.750;-3.396;2023-03-01T00:56:04;6.90;99.90
46758;DHT22;32509;47.750;-3.396;2023-03-01T00:58:30;6.80;99.90
46758;DHT22;32509;47.750;-3.396;2023-03-01T01:00:56;6.90;99.90
46758;DHT22;32509;47.750;-3.396;2023-03-01T01:03:22;6.90;99.90
46758;DHT22;32509;47.750;-3.396;2023-03-01T01:05:51;6.90;99.90
46758;DHT22;32509;47.750;-3.396;2023-03-01T01:08:18;6.90;99.90
46758;DHT22;32509;47.750;-3.396;2023-03-01T01:10:44;6.90;99.90
46758;DHT22;32509;47.750;-3.396;2023-03-01T01:13:10;6.90;99.90
46758;DHT22;32509;47.750;-3.396;2023-03-01T01:15:36;6.80;99.90
46758;DHT22;32509;47.750;-3.396;2023-03-01T01:18:02;6.80;99.90
46758;DHT22;32509;47.750;-3.396;2023-03-01T01:20:28;6.90;99.90
46758;DHT22;32509;47.750;-3.396;2023-03-01T01:22:54;6.90;99.90
46758;DHT22;32509;47.750;-3.396;2023-03-01T01:25:20;6.80;99.90
46758;DHT22;32509;47.750;-3.396;2023-03-01T01:27:46;6.80;99.90
46758;DHT22;32509;47.750;-3.396;2023-03-01T01:30:12;6.80;99.90
46758;DHT22;32509;47.750;-3.396;2023-03-01T01:32:38;6.80;99.90
46758;DHT22;32509;47.750;-3.396;2023-03-01T01:35:04;6.70;99.90
46758;DHT22;32509;47.750;-3.396;2023-03-01T01:37:30;6.70;99.90
46758;DHT22;32509;47.750;-3.396;2023-03-01T01:39:59;6.60;99.90
46758;DHT22;32509;47.750;-3.396;2023-03-01T01:42:26;6.60;99.90
46758;DHT22;32509;47.750;-3.396;2023-03-01T01:45:28;6.60;99.90
46758;DHT22;32509;47.750;-3.396;2023-03-01T01:47:59;6.60;99.90
46758;DHT22;32509;47.750;-3.396;2023-03-01T01:50:26;6.60;99.90
46758;DHT22;32509;47.750;-3.396;2023-03-01T01:52:53;6.60;99.90
46758;DHT22;32509;47.750;-3.396;2023-03-01T01:55:24;6.60;99.90
46758;DHT22;32509;47.750;-3.396;2023-03-01T01:57:58;6.50;99.90
46758;DHT22;32509;47.750;-3.396;2023-03-01T02:00:28;6.40;99.90
46758;DHT22;32509;47.750;-3.396;2023-03-01T02:02:57;6.40;99.90
46758;DHT22;32509;47.750;-3.396;2023-03-01T02:08:29;6.40;99.90
46758;DHT22;32509;47.750;-3.396;2023-03-01T02:10:57;6.40;99.90
46758;DHT22;32509;47.750;-3.396;2023-03-01T02:13:25;6.30;99.90
46758;DHT22;32509;47.750;-3.396;2023-03-01T02:15:51;6.30;99.90
46758;DHT22;32509;47.750;-3.396;2023-03-01T02:18:19;6.30;99.90
46758;DHT22;32509;47.750;-3.396;2023-03-01T02:20:52;6.30;99.90
46758;DHT22;32509;47.750;-3.396;2023-03-01T02:23:21;6.30;99.90
46758;DHT22;32509;47.750;-3.396;2023-03-01T02:28:38;6.20;99.90
46758;DHT22;32509;47.750;-3.396;2023-03-01T02:31:09;6.20;99.90
46758;DHT22;32509;47.750;-3.396;2023-03-01T02:33:54;6.10;99.90
46758;DHT22;32509;47.750;-3.396;2023-03-01T02:36:28;6.20;99.90
46758;DHT22;32509;47.750;-3.396;2023-03-01T02:38:59;6.20;99.90
46758;DHT22;32509;47.750;-3.396;2023-03-01T02:41:29;6.20;99.90
46758;DHT22;32509;47.750;-3.396;2023-03-01T02:43:56;6.10;99.90
46758;DHT22;32509;47.750;-3.396;2023-03-01T02:46:25;6.10;99.90
46758;DHT22;32509;47.750;-3.396;2023-03-01T02:48:54;6.00;99.90
46758;DHT22;32509;47.750;-3.396;2023-03-01T02:52:16;5.90;99.90
46758;DHT22;32509;47.750;-3.396;2023-03-01T02:56:49;6.00;99.90
46758;DHT22;32509;47.750;-3.396;2023-03-01T02:59:19;6.00;99.90
46758;DHT22;32509;47.750;-3.396;2023-03-01T03:01:46;6.00;99.90
46758;DHT22;32509;47.750;-3.396;2023-03-01T03:04:15;6.00;99.90
46758;DHT22;32509;47.750;-3.396;2023-03-01T03:06:48;5.90;99.90
46758;DHT22;32509;47.750;-3.396;2023-03-01T03:09:15;6.00;99.90
46758;DHT22;32509;47.750;-3.396;2023-03-01T03:11:42;6.00;99.90
46758;DHT22;32509;47.750;-3.396;2023-03-01T03:14:13;5.90;99.90
46758;DHT22;32509;47.750;-3.396;2023-03-01T03:16:45;5.90;99.90
46758;DHT22;32509;47.750;-3.396;2023-03-01T03:19:11;5.90;99.90
46758;DHT22;32509;47.750;-3.396;2023-03-01T03:21:37;6.00;99.90
46758;DHT22;32509;47.750;-3.396;2023-03-01T03:24:03;6.00;99.90
46758;DHT22;32509;47.750;-3.396;2023-03-01T03:26:32;6.00;99.90
46758;DHT22;32509;47.750;-3.396;2023-03-01T03:28:58;6.10;99.90
46758;DHT22;32509;47.750;-3.396;2023-03-01T03:31:24;6.10;99.90
46758;DHT22;32509;47.750;-3.396;2023-03-01T03:33:50;6.10;99.90
46758;DHT22;32509;47.750;-3.396;2023-03-01T03:36:22;6.00;99.90
46758;DHT22;32509;47.750;-3.396;2023-03-01T03:38:47;6.00;99.90
46758;DHT22;32509;47.750;-3.396;2023-03-01T03:41:14;6.00;99.90
46758;DHT22;32509;47.750;-3.396;2023-03-01T03:43:42;6.10;99.90
46758;DHT22;32509;47.750;-3.396;2023-03-01T03:46:10;6.00;99.90
46758;DHT22;32509;47.750;-3.396;2023-03-01T03:48:41;6.00;99.90
46758;DHT22;32509;47.750;-3.396;2023-03-01T03:51:11;5.90;99.90
46758;DHT22;32509;47.750;-3.396;2023-03-01T03:53:38;6.00;99.90
46758;DHT22;32509;47.750;-3.396;2023-03-01T03:56:04;6.10;99.90
46758;DHT22;32509;47.750;-3.396;2023-03-01T03:58:30;6.10;99.90
46758;DHT22;32509;47.750;-3.396;2023-03-01T04:00:56;6.00;99.90
46758;DHT22;32509;47.750;-3.396;2023-03-01T04:03:24;6.00;99.90
46758;DHT22;32509;47.750;-3.396;2023-03-01T04:05:51;6.00;99.90
46758;DHT22;32509;47.750;-3.396;2023-03-01T04:08:22;5.90;99.90
46758;DHT22;32509;47.750;-3.396;2023-03-01T04:10:51;5.90;99.90
46758;DHT22;32509;47.750;-3.396;2023-03-01T04:13:19;5.90;99.90
46758;DHT22;32509;47.750;-3.396;2023-03-01T04:15:53;5.90;99.90
46758;DHT22;32509;47.750;-3.396;2023-03-01T04:18:22;6.00;99.90
46758;DHT22;32509;47.750;-3.396;2023-03-01T04:20:48;5.90;99.90
46758;DHT22;32509;47.750;-3.396;2023-03-01T04:23:18;5.90;99.90
46758;DHT22;32509;47.750;-3.396;2023-03-01T04:25:54;6.00;99.90
46758;DHT22;32509;47.750;-3.396;2023-03-01T04:28:27;6.00;99.90
46758;DHT22;32509;47.750;-3.396;2023-03-01T04:30:55;5.90;99.90
46758;DHT22;32509;47.750;-3.396;2023-03-01T04:33:24;5.90;99.90
46758;DHT22;32509;47.750;-3.396;2023-03-01T04:35:50;5.90;99.90
46758;DHT22;32509;47.750;-3.396;2023-03-01T04:38:20;5.80;99.90
46758;DHT22;32509;47.750;-3.396;2023-03-01T04:40:46;5.90;99.90
46758;DHT22;32509;47.750;-3.396;2023-03-01T04:43:13;5.90;99.90
46758;DHT22;32509;47.750;-3.396;2023-03-01T04:45:40;5.90;99.90
46758;DHT22;32509;47.750;-3.396;2023-03-01T04:48:06;5.80;99.90
46758;DHT22;32509;47.750;-3.396;2023-03-01T04:50:32;5.70;99.90
46758;DHT22;32509;47.750;-3.396;2023-03-01T04:52:58;5.70;99.90
46758;DHT22;32509;47.750;-3.396;2023-03-01T04:55:27;5.70;99.90
46758;DHT22;32509;47.750;-3.396;2023-03-01T04:57:54;5.70;99.90
46758;DHT22;32509;47.750;-3.396;2023-03-01T05:00:20;5.60;99.90
46758;DHT22;32509;47.750;-3.396;2023-03-01T05:02:54;5.60;99.90
46758;DHT22;32509;47.750;-3.396;2023-03-01T05:08:14;5.60;99.90
46758;DHT22;32509;47.750;-3.396;2023-03-01T05:10:50;5.70;99.90
46758;DHT22;32509;47.750;-3.396;2023-03-01T05:13:16;5.60;99.90
46758;DHT22;32509;47.750;-3.396;2023-03-01T05:15:55;5.70;99.90
46758;DHT22;32509;47.750;-3.396;2023-03-01T05:18:22;5.70;99.90
46758;DHT22;32509;47.750;-3.396;2023-03-01T05:20:52;5.70;99.90
46758;DHT22;32509;47.750;-3.396;2023-03-01T05:23:17;5.80;99.90
46758;DHT22;32509;47.750;-3.396;2023-03-01T05:25:44;5.80;99.90
46758;DHT22;32509;47.750;-3.396;2023-03-01T05:28:13;5.80;99.90
46758;DHT22;32509;47.750;-3.396;2023-03-01T05:30:39;5.70;99.90
46758;DHT22;32509;47.750;-3.396;2023-03-01T05:33:06;5.80;99.90
46758;DHT22;32509;47.750;-3.396;2023-03-01T05:35:39;5.80;99.90
46758;DHT22;32509;47.750;-3.396;2023-03-01T05:38:06;5.80;99.90
46758;DHT22;32509;47.750;-3.396;2023-03-01T05:40:33;5.80;99.90
46758;DHT22;32509;47.750;-3.396;2023-03-01T05:42:59;5.90;99.90
46758;DHT22;32509;47.750;-3.396;2023-03-01T05:45:26;5.90;99.90
46758;DHT22;32509;47.750;-3.396;2023-03-01T05:47:53;5.90;99.90
46758;DHT22;32509;47.750;-3.396;2023-03-01T05:50:25;5.90;99.90
46758;DHT22;32509;47.750;-3.396;2023-03-01T05:52:56;5.90;99.90
46758;DHT22;32509;47.750;-3.396;2023-03-01T05:55:30;5.90;99.90
46758;DHT22;32509;47.750;-3.396;2023-03-01T05:58:00;5.90;99.90
46758;DHT22;32509;47.750;-3.396;2023-03-01T06:00:34;5.90;99.90
46758;DHT22;32509;47.750;-3.396;2023-03-01T06:03:01;5.90;99.90
46758;DHT22;32509;47.750;-3.396;2023-03-01T06:05:28;6.00;99.90
46758;DHT22;32509;47.750;-3.396;2023-03-01T06:07:54;6.00;99.90
46758;DHT22;32509;47.750;-3.396;2023-03-01T06:10:21;5.90;99.90
46758;DHT22;32509;47.750;-3.396;2023-03-01T06:12:47;6.00;99.90
46758;DHT22;32509;47.750;-3.396;2023-03-01T06:15:14;6.00;99.90
46758;DHT22;32509;47.750;-3.396;2023-03-01T06:17:43;6.10;99.90
46758;DHT22;32509;47.750;-3.396;2023-03-01T06:20:11;6.00;99.90
46758;DHT22;32509;47.750;-3.396;2023-03-01T06:22:38;6.10;99.90
46758;DHT22;32509;47.750;-3.396;2023-03-01T06:25:05;6.00;99.90
46758;DHT22;32509;47.750;-3.396;2023-03-01T06:27:31;6.00;99.90
46758;DHT22;32509;47.750;-3.396;2023-03-01T06:29:56;5.90;99.90
46758;DHT22;32509;47.750;-3.396;2023-03-01T06:32:22;6.00;99.90
46758;DHT22;32509;47.750;-3.396;2023-03-01T06:34:49;6.00;99.90
46758;DHT22;32509;47.750;-3.396;2023-03-01T06:37:14;6.00;99.90
46758;DHT22;32509;47.750;-3.396;2023-03-01T06:39:40;6.00;99.90
46758;DHT22;32509;47.750;-3.396;2023-03-01T06:42:08;6.10;99.90
46758;DHT22;32509;47.750;-3.396;2023-03-01T06:44:35;6.10;99.90
46758;DHT22;32509;47.750;-3.396;2023-03-01T06:47:01;6.10;99.90
46758;DHT22;32509;47.750;-3.396;2023-03-01T06:49:28;6.10;99.90
46758;DHT22;32509;47.750;-3.396;2023-03-01T06:51:54;6.10;99.90
46758;DHT22;32509;47.750;-3.396;2023-03-01T06:54:20;6.10;99.90
46758;DHT22;32509;47.750;-3.396;2023-03-01T06:56:49;6.10;99.90
46758;DHT22;32509;47.750;-3.396;2023-03-01T06:59:16;6.10;99.90
46758;DHT22;32509;47.750;-3.396;2023-03-01T07:01:45;6.20;99.90
46758;DHT22;32509;47.750;-3.396;2023-03-01T07:04:12;6.20;99.90
46758;DHT22;32509;47.750;-3.396;2023-03-01T07:06:39;6.20;99.90
46758;DHT22;32509;47.750;-3.396;2023-03-01T07:09:05;6.20;99.90
46758;DHT22;32509;47.750;-3.396;2023-03-01T07:11:32;6.20;99.90
46758;DHT22;32509;47.750;-3.396;2023-03-01T07:13:58;6.10;99.90
46758;DHT22;32509;47.750;-3.396;2023-03-01T07:16:25;6.20;99.90
46758;DHT22;32509;47.750;-3.396;2023-03-01T07:18:51;6.20;99.90
46758;DHT22;32509;47.750;-3.396;2023-03-01T07:21:22;6.10;99.90
46758;DHT22;32509;47.750;-3.396;2023-03-01T07:23:51;6.10;99.90
46758;DHT22;32509;47.750;-3.396;2023-03-01T07:26:17;6.10;99.90
46758;DHT22;32509;47.750;-3.396;2023-03-01T07:28:42;6.10;99.90
46758;DHT22;32509;47.750;-3.396;2023-03-01T07:31:08;6.10;99.90
46758;DHT22;32509;47.750;-3.396;2023-03-01T07:33:34;6.00;99.90
46758;DHT22;32509;47.750;-3.396;2023-03-01T07:36:01;6.10;99.90
46758;DHT22;32509;47.750;-3.396;2023-03-01T07:38:28;6.10;99.90
46758;DHT22;32509;47.750;-3.396;2023-03-01T07:41:01;5.90;99.90
46758;DHT22;32509;47.750;-3.396;2023-03-01T07:43:28;5.90;99.90
46758;DHT22;32509;47.750;-3.396;2023-03-01T07:45:57;6.00;99.90
46758;DHT22;32509;47.750;-3.396;2023-03-01T07:48:23;6.10;99.90
46758;DHT22;32509;47.750;-3.396;2023-03-01T07:50:48;6.10;99.90
46758;DHT22;32509;47.750;-3.396;2023-03-01T07:53:14;6.00;99.90
46758;DHT22;32509;47.750;-3.396;2023-03-01T07:55:40;6.10;99.90
46758;DHT22;32509;47.750;-3.396;2023-03-01T07:58:06;6.10;99.90
46758;DHT22;32509;47.750;-3.396;2023-03-01T08:00:31;6.10;99.90
46758;DHT22;32509;47.750;-3.396;2023-03-01T08:03:01;6.00;99.90
46758;DHT22;32509;47.750;-3.396;2023-03-01T08:05:27;6.00;99.90
46758;DHT22;32509;47.750;-3.396;2023-03-01T08:07:53;6.00;99.90
46758;DHT22;32509;47.750;-3.396;2023-03-01T08:10:19;6.10;99.90
46758;DHT22;32509;47.750;-3.396;2023-03-01T08:12:45;6.10;99.90
46758;DHT22;32509;47.750;-3.396;2023-03-01T08:15:11;6.10;99.90
46758;DHT22;32509;47.750;-3.396;2023-03-01T08:17:37;6.10;99.90
46758;DHT22;32509;47.750;-3.396;2023-03-01T08:20:03;6.10;99.90
46758;DHT22;32509;47.750;-3.396;2023-03-01T08:22:33;6.10;99.90
46758;DHT22;32509;47.750;-3.396;2023-03-01T08:24:58;6.10;99.90
46758;DHT22;32509;47.750;-3.396;2023-03-01T08:27:24;6.10;99.90
46758;DHT22;32509;47.750;-3.396;2023-03-01T08:29:50;6.10;99.90
46758;DHT22;32509;47.750;-3.396;2023-03-01T08:32:16;6.10;99.90
46758;DHT22;32509;47.750;-3.396;2023-03-01T08:34:41;6.00;99.90
46758;DHT22;32509;47.750;-3.396;2023-03-01T08:37:07;6.00;99.90
46758;DHT22;32509;47.750;-3.396;2023-03-01T08:39:33;6.10;99.90
46758;DHT22;32509;47.750;-3.396;2023-03-01T08:41:58;6.10;99.90
46758;DHT22;32509;47.750;-3.396;2023-03-01T08:44:24;6.10;99.90
46758;DHT22;32509;47.750;-3.396;2023-03-01T08:46:50;6.10;99.90
46758;DHT22;32509;47.750;-3.396;2023-03-01T08:49:19;6.20;99.90
46758;DHT22;32509;47.750;-3.396;2023-03-01T08:51:46;6.10;99.90
46758;DHT22;32509;47.750;-3.396;2023-03-01T08:54:16;6.10;99.90
46758;DHT22;32509;47.750;-3.396;2023-03-01T08:56:42;6.10;99.90
46758;DHT22;32509;47.750;-3.396;2023-03-01T08:59:09;6.10;99.90
46758;DHT22;32509;47.750;-3.396;2023-03-01T09:01:35;6.10;99.90
46758;DHT22;32509;47.750;-3.396;2023-03-01T09:04:02;6.10;99.90
46758;DHT22;32509;47.750;-3.396;2023-03-01T09:06:31;6.10;99.90
46758;DHT22;32509;47.750;-3.396;2023-03-01T09:08:58;6.10;99.90
46758;DHT22;32509;47.750;-3.396;2023-03-01T09:11:24;6.10;99.90
46758;DHT22;32509;47.750;-3.396;2023-03-01T09:13:51;6.20;99.90
46758;DHT22;32509;47.750;-3.396;2023-03-01T09:16:18;6.20;99.90
46758;DHT22;32509;47.750;-3.396;2023-03-01T09:18:45;6.30;99.90
46758;DHT22;32509;47.750;-3.396;2023-03-01T09:21:14;6.30;99.90
46758;DHT22;32509;47.750;-3.396;2023-03-01T09:23:45;6.30;99.90
46758;DHT22;32509;47.750;-3.396;2023-03-01T09:26:17;6.20;99.90
46758;DHT22;32509;47.750;-3.396;2023-03-01T09:28:45;6.20;99.90
46758;DHT22;32509;47.750;-3.396;2023-03-01T09:31:13;6.20;99.90
46758;DHT22;32509;47.750;-3.396;2023-03-01T09:33:40;6.20;99.90
46758;DHT22;32509;47.750;-3.396;2023-03-01T09:36:12;6.20;99.90
46758;DHT22;32509;47.750;-3.396;2023-03-01T09:38:39;6.20;99.90
46758;DHT22;32509;47.750;-3.396;2023-03-01T09:46:48;6.20;99.90
46758;DHT22;32509;47.750;-3.396;2023-03-01T09:49:19;6.10;99.90
46758;DHT22;32509;47.750;-3.396;2023-03-01T09:52:23;6.00;99.90
46758;DHT22;32509;47.750;-3.396;2023-03-01T09:54:54;6.00;99.90
46758;DHT22;32509;47.750;-3.396;2023-03-01T09:57:36;5.90;99.90
46758;DHT22;32509;47.750;-3.396;2023-03-01T10:00:49;6.00;99.90
46758;DHT22;32509;47.750;-3.396;2023-03-01T10:02:56;6.00;99.90
46758;DHT22;32509;47.750;-3.396;2023-03-01T10:05:33;6.10;99.90
46758;DHT22;32509;47.750;-3.396;2023-03-01T10:10:40;6.10;99.90
46758;DHT22;32509;47.750;-3.396;2023-03-01T10:13:19;6.20;99.90
46758;DHT22;32509;47.750;-3.396;2023-03-01T10:15:55;6.20;99.90
46758;DHT22;32509;47.750;-3.396;2023-03-01T10:18:28;6.30;99.90
46758;DHT22;32509;47.750;-3.396;2023-03-01T10:23:38;6.30;99.90
46758;DHT22;32509;47.750;-3.396;2023-03-01T10:26:32;6.30;99.90
46758;DHT22;32509;47.750;-3.396;2023-03-01T10:29:08;6.30;99.90
46758;DHT22;32509;47.750;-3.396;2023-03-01T10:31:44;6.30;99.90
46758;DHT22;32509;47.750;-3.396;2023-03-01T10:34:18;6.30;99.90
46758;DHT22;32509;47.750;-3.396;2023-03-01T10:36:49;6.40;99.90
46758;DHT22;32509;47.750;-3.396;2023-03-01T10:39:21;6.40;99.90
46758;DHT22;32509;47.750;-3.396;2023-03-01T10:41:59;6.50;99.90
46758;DHT22;32509;47.750;-3.396;2023-03-01T10:44:41;6.60;99.90
46758;DHT22;32509;47.750;-3.396;2023-03-01T10:47:21;6.60;99.90
46758;DHT22;32509;47.750;-3.396;2023-03-01T10:49:59;6.60;99.90
46758;DHT22;32509;47.750;-3.396;2023-03-01T10:52:37;6.60;99.90
46758;DHT22;32509;47.750;-3.396;2023-03-01T10:55:33;6.60;99.90
46758;DHT22;32509;47.750;-3.396;2023-03-01T10:58:29;6.70;99.90
46758;DHT22;32509;47.750;-3.396;2023-03-01T11:01:01;6.70;99.90
46758;DHT22;32509;47.750;-3.396;2023-03-01T11:03:33;6.70;99.90
46758;DHT22;32509;47.750;-3.396;2023-03-01T11:08:46;6.70;99.90
46758;DHT22;32509;47.750;-3.396;2023-03-01T11:13:52;6.70;99.90
46758;DHT22;32509;47.750;-3.396;2023-03-01T11:16:35;6.70;99.90
46758;DHT22;32509;47.750;-3.396;2023-03-01T11:21:33;6.70;99.90
46758;DHT22;32509;47.750;-3.396;2023-03-01T11:24:01;6.80;99.90
46758;DHT22;32509;47.750;-3.396;2023-03-01T11:26:29;6.80;99.90
46758;DHT22;32509;47.750;-3.396;2023-03-01T13:13:20;7.70;99.90
46758;DHT22;32509;47.750;-3.396;2023-03-01T13:15:46;7.80;99.90
46758;DHT22;32509;47.750;-3.396;2023-03-01T13:25:34;7.80;99.90
46758;DHT22;32509;47.750;-3.396;2023-03-01T13:30:57;7.90;99.90
46758;DHT22;32509;47.750;-3.396;2023-03-01T13:35:49;7.90;99.90
46758;DHT22;32509;47.750;-3.396;2023-03-01T13:44:30;7.80;99.90
46758;DHT22;32509;47.750;-3.396;2023-03-01T13:46:57;7.80;99.90
46758;DHT22;32509;47.750;-3.396;2023-03-01T13:49:31;7.80;99.90
46758;DHT22;32509;47.750;-3.396;2023-03-01T13:51:59;7.80;99.90
46758;DHT22;32509;47.750;-3.396;2023-03-01T13:54:32;7.90;99.90
46758;DHT22;32509;47.750;-3.396;2023-03-01T13:56:59;7.90;99.90
46758;DHT22;32509;47.750;-3.396;2023-03-01T13:59:26;7.90;99.90
46758;DHT22;32509;47.750;-3.396;2023-03-01T14:01:56;7.90;99.90
46758;DHT22;32509;47.750;-3.396;2023-03-01T14:04:30;7.90;99.90
46758;DHT22;32509;47.750;-3.396;2023-03-01T14:07:19;7.80;99.90
46758;DHT22;32509;47.750;-3.396;2023-03-01T14:09:48;7.90;99.90
46758;DHT22;32509;47.750;-3.396;2023-03-01T14:20:52;7.90;99.90
46758;DHT22;32509;47.750;-3.396;2023-03-01T14:23:22;7.90;99.90
46758;DHT22;32509;47.750;-3.396;2023-03-01T14:25:51;7.90;99.90
46758;DHT22;32509;47.750;-3.396;2023-03-01T14:28:21;7.90;99.90
46758;DHT22;32509;47.750;-3.396;2023-03-01T14:30:50;7.90;99.90
46758;DHT22;32509;47.750;-3.396;2023-03-01T14:33:36;7.80;99.90
46758;DHT22;32509;47.750;-3.396;2023-03-01T14:36:08;7.90;99.90
46758;DHT22;32509;47.750;-3.396;2023-03-01T14:38:38;7.90;99.90
46758;DHT22;32509;47.750;-3.396;2023-03-01T14:41:11;7.90;99.90
46758;DHT22;32509;47.750;-3.396;2023-03-01T14:43:42;7.90;99.90
46758;DHT22;32509;47.750;-3.396;2023-03-01T14:46:20;7.90;99.90
46758;DHT22;32509;47.750;-3.396;2023-03-01T14:48:50;8.00;99.90
46758;DHT22;32509;47.750;-3.396;2023-03-01T14:51:16;8.00;99.90
46758;DHT22;32509;47.750;-3.396;2023-03-01T14:53:42;8.00;99.90
46758;DHT22;32509;47.750;-3.396;2023-03-01T14:56:14;8.00;99.90
46758;DHT22;32509;47.750;-3.396;2023-03-01T14:58:40;8.10;99.90
46758;DHT22;32509;47.750;-3.396;2023-03-01T15:01:06;8.10;99.90
46758;DHT22;32509;47.750;-3.396;2023-03-01T15:03:47;8.10;99.90
46758;DHT22;32509;47.750;-3.396;2023-03-01T15:06:18;8.10;99.90
46758;DHT22;32509;47.750;-3.396;2023-03-01T15:08:53;8.20;99.90
46758;DHT22;32509;47.750;-3.396;2023-03-01T15:11:24;8.10;99.90
46758;DHT22;32509;47.750;-3.396;2023-03-01T15:13:52;8.10;99.90
46758;DHT22;32509;47.750;-3.396;2023-03-01T15:16:26;8.10;99.90
46758;DHT22;32509;47.750;-3.396;2023-03-01T15:19:06;8.10;99.90
46758;DHT22;32509;47.750;-3.396;2023-03-01T15:21:37;8.00;99.90
46758;DHT22;32509;47.750;-3.396;2023-03-01T15:24:34;8.00;99.90
46758;DHT22;32509;47.750;-3.396;2023-03-01T15:27:01;8.00;99.90
46758;DHT22;32509;47.750;-3.396;2023-03-01T15:29:33;7.90;99.90
46758;DHT22;32509;47.750;-3.396;2023-03-01T15:34:52;8.00;99.90
46758;DHT22;32509;47.750;-3.396;2023-03-01T15:39:59;8.00;99.90
46758;DHT22;32509;47.750;-3.396;2023-03-01T15:45:19;8.00;99.90
46758;DHT22;32509;47.750;-3.396;2023-03-01T15:48:01;8.00;99.90
46758;DHT22;32509;47.750;-3.396;2023-03-01T15:50:31;8.00;99.90
46758;DHT22;32509;47.750;-3.396;2023-03-01T15:53:05;8.00;99.90
46758;DHT22;32509;47.750;-3.396;2023-03-01T15:55:36;8.00;99.90
46758;DHT22;32509;47.750;-3.396;2023-03-01T15:58:15;8.00;99.90
46758;DHT22;32509;47.750;-3.396;2023-03-01T16:00:41;8.10;99.90
46758;DHT22;32509;47.750;-3.396;2023-03-01T16:03:10;8.10;99.90
46758;DHT22;32509;47.750;-3.396;2023-03-01T16:05:38;8.10;99.90
46758;DHT22;32509;47.750;-3.396;2023-03-01T16:08:05;8.10;99.90
46758;DHT22;32509;47.750;-3.396;2023-03-01T16:10:34;8.10;99.90
46758;DHT22;32509;47.750;-3.396;2023-03-01T16:13:00;8.10;99.90
46758;DHT22;32509;47.750;-3.396;2023-03-01T16:15:28;8.00;99.90
46758;DHT22;32509;47.750;-3.396;2023-03-01T16:17:55;8.00;99.90
46758;DHT22;32509;47.750;-3.396;2023-03-01T16:20:21;8.00;99.90
46758;DHT22;32509;47.750;-3.396;2023-03-01T16:22:47;8.00;99.90
46758;DHT22;32509;47.750;-3.396;2023-03-01T16:25:15;8.10;99.90
46758;DHT22;32509;47.750;-3.396;2023-03-01T16:27:46;8.00;99.90
46758;DHT22;32509;47.750;-3.396;2023-03-01T16:30:17;8.00;99.90
46758;DHT22;32509;47.750;-3.396;2023-03-01T16:32:45;8.00;99.90
46758;DHT22;32509;47.750;-3.396;2023-03-01T16:35:12;8.00;99.90
46758;DHT22;32509;47.750;-3.396;2023-03-01T16:37:39;8.00;99.90
46758;DHT22;32509;47.750;-3.396;2023-03-01T16:40:10;8.00;99.90
46758;DHT22;32509;47.750;-3.396;2023-03-01T16:42:41;8.00;99.90
46758;DHT22;32509;47.750;-3.396;2023-03-01T16:45:10;8.00;99.90
46758;DHT22;32509;47.750;-3.396;2023-03-01T16:47:36;7.90;99.90
46758;DHT22;32509;47.750;-3.396;2023-03-01T16:50:02;7.90;99.90
46758;DHT22;32509;47.750;-3.396;2023-03-01T16:52:28;7.90;99.90
46758;DHT22;32509;47.750;-3.396;2023-03-01T16:54:54;7.90;99.90
46758;DHT22;32509;47.750;-3.396;2023-03-01T16:57:19;7.90;99.90
46758;DHT22;32509;47.750;-3.396;2023-03-01T16:59:45;7.90;99.90
46758;DHT22;32509;47.750;-3.396;2023-03-01T17:02:12;7.90;99.90
46758;DHT22;32509;47.750;-3.396;2023-03-01T17:04:40;7.90;99.90
46758;DHT22;32509;47.750;-3.396;2023-03-01T17:07:06;7.90;99.90
46758;DHT22;32509;47.750;-3.396;2023-03-01T17:09:36;8.00;99.90
46758;DHT22;32509;47.750;-3.396;2023-03-01T17:12:05;8.00;99.90
46758;DHT22;32509;47.750;-3.396;2023-03-01T17:14:31;8.00;99.90
46758;DHT22;32509;47.750;-3.396;2023-03-01T17:16:57;7.90;99.90
46758;DHT22;32509;47.750;-3.396;2023-03-01T17:19:23;7.80;99.90
46758;DHT22;32509;47.750;-3.396;2023-03-01T17:21:48;7.80;99.90
46758;DHT22;32509;47.750;-3.396;2023-03-01T17:24:15;7.80;99.90
46758;DHT22;32509;47.750;-3.396;2023-03-01T17:26:41;7.70;99.90
46758;DHT22;32509;47.750;-3.396;2023-03-01T17:29:06;7.70;99.90
46758;DHT22;32509;47.750;-3.396;2023-03-01T17:31:33;7.80;99.90
46758;DHT22;32509;47.750;-3.396;2023-03-01T17:33:59;7.70;99.90
46758;DHT22;32509;47.750;-3.396;2023-03-01T17:36:25;7.60;99.90
46758;DHT22;32509;47.750;-3.396;2023-03-01T17:38:51;7.70;99.90
46758;DHT22;32509;47.750;-3.396;2023-03-01T17:41:17;7.70;99.90
46758;DHT22;32509;47.750;-3.396;2023-03-01T17:43:46;7.60;99.90
46758;DHT22;32509;47.750;-3.396;2023-03-01T17:46:12;7.70;99.90
46758;DHT22;32509;47.750;-3.396;2023-03-01T17:48:39;7.60;99.90
46758;DHT22;32509;47.750;-3.396;2023-03-01T17:51:06;7.60;99.90
46758;DHT22;32509;47.750;-3.396;2023-03-01T17:53:32;7.60;99.90
46758;DHT22;32509;47.750;-3.396;2023-03-01T17:56:00;7.60;99.90
46758;DHT22;32509;47.750;-3.396;2023-03-01T17:58:27;7.60;99.90
46758;DHT22;32509;47.750;-3.396;2023-03-01T18:00:52;7.60;99.90
46758;DHT22;32509;47.750;-3.396;2023-03-01T18:03:18;7.50;99.90
46758;DHT22;32509;47.750;-3.396;2023-03-01T18:05:46;7.60;99.90
46758;DHT22;32509;47.750;-3.396;2023-03-01T18:08:12;7.60;99.90
46758;DHT22;32509;47.750;-3.396;2023-03-01T18:10:38;7.60;99.90
46758;DHT22;32509;47.750;-3.396;2023-03-01T18:13:05;7.60;99.90
46758;DHT22;32509;47.750;-3.396;2023-03-01T18:15:32;7.60;99.90
46758;DHT22;32509;47.750;-3.396;2023-03-01T18:17:58;7.50;99.90
46758;DHT22;32509;47.750;-3.396;2023-03-01T18:20:24;7.50;99.90
46758;DHT22;32509;47.750;-3.396;2023-03-01T18:22:50;7.50;99.90
46758;DHT22;32509;47.750;-3.396;2023-03-01T18:25:18;7.50;99.90
46758;DHT22;32509;47.750;-3.396;2023-03-01T18:27:44;7.50;99.90
46758;DHT22;32509;47.750;-3.396;2023-03-01T18:30:11;7.50;99.90
46758;DHT22;32509;47.750;-3.396;2023-03-01T18:32:37;7.40;99.90